Dniprodzerzhyns'k, Ukraine
Current Conditions -  °F | °C
As of 10:30 AM on Friday 31 Oct 2014 (Local Time) from UKDD Reporting Station
Broken Clouds Broken Clouds  
Wind Chill: 34°   Ceiling: 3600
Heat Index: 41°   Visibility: 6mi
Dew Point: 36°   Wind: 11mph
Humidity: 81%   Direction: 20°NNE
Pressure: 30.12"   Gusts: NA
Location:  48.5°N, 34.61°E
Report Text: UKDD 310730Z 02005MPS 9999 BKN036 05/02 Q1020 08090070 NOSIG
Loading
Personal Weather Stations






























Interactive Weather Map
Tropical Storm Tracking
New forecast layout! Learn more

10-Day Weather Forecast

Advertisements
Track Severe Weather on mobile